METAR Data
IDs: Format: Raw Decoded Include TAF

Data at: 2013 UTC 23 Sep 2018

METAR for:PADQ (Kodiak Arpt, AK, US)
Text:PADQ 231653Z 26007KT 10SM CLR 04/03 A2988 RMK AO2 SLP117 T00440028
Temperature: 4.4°C ( 40°F)
Dewpoint: 2.8°C ( 37°F) [RH = 89%]
Pressure (altimeter):29.88 inches Hg (1011.9 mb) [Sea level pressure: 1011.7 mb]
Winds:from the W (260 degrees) at 8 MPH (7 knots; 3.6 m/s)
Visibility:10 or more sm (16+ km)
Ceiling:at least 12,000 feet AGL
Clouds:sky clear below 12,000 feet AGL
Text:PADQ 231553Z 29005KT 10SM CLR 04/03 A2987 RMK AO2 SLP114 T00440028
Temperature: 4.4°C ( 40°F)
Dewpoint: 2.8°C ( 37°F) [RH = 89%]
Pressure (altimeter):29.87 inches Hg (1011.6 mb) [Sea level pressure: 1011.4 mb]
Winds:from the WNW (290 degrees) at 6 MPH (5 knots; 2.6 m/s)
Visibility:10 or more sm (16+ km)
Ceiling:at least 12,000 feet AGL
Clouds:sky clear below 12,000 feet AGL
Text:PADQ 231453Z 27007KT 10SM CLR 04/03 A2986 RMK AO2 SLP112 T00440028 51014
Temperature: 4.4°C ( 40°F)
Dewpoint: 2.8°C ( 37°F) [RH = 89%]
Pressure (altimeter):29.86 inches Hg (1011.3 mb) [Sea level pressure: 1011.2 mb]
Winds:from the W (270 degrees) at 8 MPH (7 knots; 3.6 m/s)
Visibility:10 or more sm (16+ km)
Ceiling:at least 12,000 feet AGL
Clouds:sky clear below 12,000 feet AGL

TAF for:PADQ (Kodiak Arpt, AK, US) issued at 1741 UTC 23 Sep 2018
Text:PADQ 231741Z 2318/2418 26006KT P6SM FEW040 BKN100
Forecast period:1800 to 2100 UTC 23 September 2018
Forecast type:FROM: standard forecast or significant change
Winds:from the W (260 degrees) at 7 MPH (6 knots; 3.1 m/s)
Visibility:6 or more sm (10+ km)
Ceiling:10000 feet AGL
Clouds: few clouds at 4000 feet AGL, broken clouds at 10000 feet AGL
Text:FM232100 25006KT P6SM VCSH FEW020 BKN040
Forecast period:2100 UTC 23 September 2018 to 0000 UTC 24 September 2018
Forecast type:FROM: standard forecast or significant change
Winds:from the WSW (250 degrees) at 7 MPH (6 knots; 3.1 m/s)
Visibility:6 or more sm (10+ km)
Ceiling:4000 feet AGL
Clouds: few clouds at 2000 feet AGL, broken clouds at 4000 feet AGL
Weather:VCSH (showers in vicinity)
Text:FM240000 12011KT 6SM -RA BKN015 OVC030
Forecast period:0000 to 0300 UTC 24 September 2018
Forecast type:FROM: standard forecast or significant change
Winds:from the ESE (120 degrees) at 13 MPH (11 knots; 5.7 m/s)
Visibility: 6 sm ( 10 km)
Ceiling:1500 feet AGL
Clouds: broken clouds at 1500 feet AGL, overcast cloud deck at 3000 feet AGL
Weather:-RA (light rain)
Text:FM240300 13015KT 4SM -RA BR SCT007 OVC015
Forecast period:0300 to 0900 UTC 24 September 2018
Forecast type:FROM: standard forecast or significant change
Winds:from the SE (130 degrees) at 17 MPH (15 knots; 7.7 m/s)
Visibility: 4 sm ( 6 km)
Ceiling:1500 feet AGL
Clouds: scattered clouds at 700 feet AGL, overcast cloud deck at 1500 feet AGL
Weather:-RA BR (light rain, mist)
Text:FM240900 14020G26KT 6SM -RA BR BKN025
Forecast period:0900 to 1200 UTC 24 September 2018
Forecast type:FROM: standard forecast or significant change
Winds:from the SE (140 degrees) at 23 MPH (20 knots; 10.3 m/s) gusting to 30 MPH (26 knots; 13.4 m/s)
Visibility: 6 sm ( 10 km)
Ceiling:2500 feet AGL
Clouds: broken clouds at 2500 feet AGL
Weather:-RA BR (light rain, mist)
Text:FM241200 17025G40KT P6SM VCSH BKN025
Forecast period:1200 to 1600 UTC 24 September 2018
Forecast type:FROM: standard forecast or significant change
Winds:from the S (170 degrees) at 29 MPH (25 knots; 12.9 m/s) gusting to 46 MPH (40 knots; 20.6 m/s)
Visibility:6 or more sm (10+ km)
Ceiling:2500 feet AGL
Clouds: broken clouds at 2500 feet AGL
Weather:VCSH (showers in vicinity)
Text:FM241600 21020G35KT P6SM VCSH BKN025
Forecast period:1600 to 1800 UTC 24 September 2018
Forecast type:FROM: standard forecast or significant change
Winds:from the SSW (210 degrees) at 23 MPH (20 knots; 10.3 m/s) gusting to 40 MPH (35 knots; 18.0 m/s)
Visibility:6 or more sm (10+ km)
Ceiling:2500 feet AGL
Clouds: broken clouds at 2500 feet AGL
Weather:VCSH (showers in vicinity)